createdAt,value
2022-12-23T00:00:03.082Z,35.47
2022-12-23T00:03:14.013Z,37.83
2022-12-23T00:06:18.953Z,34.28
2022-12-23T00:09:23.625Z,35.33
2022-12-23T00:12:44.724Z,34.58
2022-12-23T00:15:47.920Z,33.10
2022-12-23T00:18:51.246Z,34.38
2022-12-23T00:21:54.448Z,34.67
2022-12-23T00:24:59.357Z,34.60
2022-12-23T00:28:02.703Z,34.30
2022-12-23T00:31:10.927Z,34.78
2022-12-23T00:34:14.204Z,35.72
2022-12-23T00:37:17.499Z,34.03
2022-12-23T00:40:36.127Z,33.70
2022-12-23T00:43:39.334Z,32.85
2022-12-23T00:46:42.679Z,32.40
2022-12-23T00:49:44.931Z,32.70
2022-12-23T00:52:48.074Z,32.65
2022-12-23T00:55:53.167Z,31.63
2022-12-23T00:58:56.359Z,31.77
2022-12-23T01:02:16.899Z,32.35
2022-12-23T01:05:43.189Z,32.63
2022-12-23T01:08:46.542Z,33.65
2022-12-23T01:11:51.129Z,33.75
2022-12-23T01:14:54.306Z,34.13
2022-12-23T01:17:57.498Z,45.00
2022-12-23T01:21:03.936Z,37.40
2022-12-23T01:24:07.841Z,36.95
2022-12-23T01:27:12.551Z,36.92
2022-12-23T01:30:16.183Z,72.55
2022-12-23T01:33:19.430Z,85.97
2022-12-23T01:36:24.076Z,69.80
2022-12-23T01:39:27.616Z,40.05
2022-12-23T01:42:44.511Z,39.60
2022-12-23T01:45:48.143Z,37.65
2022-12-23T01:48:54.018Z,35.00
2022-12-23T01:51:57.455Z,38.95
2022-12-23T01:55:00.667Z,40.50
2022-12-23T01:58:09.805Z,40.97
2022-12-23T02:01:41.028Z,42.15
2022-12-23T02:04:45.272Z,38.80
2022-12-23T02:08:06.167Z,40.00
2022-12-23T02:11:35.620Z,39.50
2022-12-23T02:15:11.747Z,40.55
2022-12-23T02:18:53.741Z,43.05
2022-12-23T02:22:28.224Z,42.90
2022-12-23T02:26:08.776Z,41.20
2022-12-23T02:29:27.734Z,41.15
2022-12-23T02:32:53.743Z,41.38
2022-12-23T02:36:03.880Z,39.88
2022-12-23T02:39:10.932Z,39.95
2022-12-23T02:42:18.139Z,41.15
2022-12-23T02:45:26.821Z,40.95
2022-12-23T02:48:38.804Z,39.90
2022-12-23T02:51:45.405Z,38.40
2022-12-23T02:54:53.200Z,41.97
2022-12-23T02:57:58.808Z,43.55
2022-12-23T03:01:03.375Z,41.40
2022-12-23T03:04:08.282Z,43.42
2022-12-23T03:07:19.154Z,43.60
2022-12-23T03:10:35.099Z,45.45
2022-12-23T03:14:00.322Z,45.10
2022-12-23T03:17:16.679Z,43.20
2022-12-23T03:20:27.833Z,45.65
2022-12-23T03:23:34.614Z,46.92
2022-12-23T03:26:41.716Z,46.78
2022-12-23T03:29:51.770Z,47.03
2022-12-23T03:32:58.265Z,47.50
2022-12-23T03:36:07.067Z,47.90
2022-12-23T03:39:14.118Z,49.03
2022-12-23T03:42:24.099Z,50.40
2022-12-23T03:45:40.416Z,50.17
2022-12-23T03:48:47.305Z,51.47
2022-12-23T03:51:57.318Z,50.53
2022-12-23T03:55:04.726Z,51.63
2022-12-23T03:58:14.904Z,53.25
2022-12-23T04:01:25.171Z,52.65
2022-12-23T04:07:42.279Z,50.88
2022-12-23T04:10:45.826Z,49.88
2022-12-23T04:13:49.812Z,51.75
2022-12-23T04:16:56.349Z,53.20
2022-12-23T04:19:59.602Z,51.88
2022-12-23T04:23:04.406Z,52.22
2022-12-23T04:26:07.581Z,50.10
2022-12-23T04:29:11.468Z,52.55
2022-12-23T04:32:14.782Z,52.75
2022-12-23T04:35:18.135Z,54.40
2022-12-23T04:38:22.752Z,52.38
2022-12-23T04:41:25.944Z,52.40
2022-12-23T04:44:29.217Z,53.58
2022-12-23T04:47:32.364Z,55.67
2022-12-23T04:50:35.703Z,54.97
2022-12-23T04:53:40.537Z,55.00
2022-12-23T04:56:44.561Z,55.20
2022-12-23T04:59:48.052Z,55.72
2022-12-23T05:02:51.949Z,57.13
2022-12-23T05:05:55.204Z,56.78
2022-12-23T05:08:59.832Z,55.60
2022-12-23T05:12:03.102Z,54.83
2022-12-23T05:15:07.226Z,57.05
2022-12-23T05:18:10.381Z,55.75
2022-12-23T05:21:13.722Z,56.00
2022-12-23T05:24:18.402Z,57.45
2022-12-23T05:27:21.581Z,55.78
2022-12-23T05:30:25.021Z,53.58
2022-12-23T05:33:28.614Z,55.45
2022-12-23T05:36:31.792Z,53.20
2022-12-23T05:39:36.598Z,56.67
2022-12-23T05:42:39.985Z,54.97
2022-12-23T05:45:43.400Z,58.08
2022-12-23T05:48:46.589Z,56.33
2022-12-23T05:51:49.924Z,56.20
2022-12-23T05:54:54.945Z,57.03
2022-12-23T05:57:58.168Z,57.72
2022-12-23T06:01:03.571Z,57.70
2022-12-23T06:04:06.880Z,58.70
2022-12-23T06:07:10.398Z,57.85
2022-12-23T06:10:14.948Z,57.00
2022-12-23T06:13:18.278Z,53.38
2022-12-23T06:16:21.533Z,56.00
2022-12-23T06:19:25.106Z,57.85
2022-12-23T06:22:28.395Z,57.22
2022-12-23T06:25:33.025Z,56.83
2022-12-23T06:28:36.255Z,53.63
2022-12-23T06:31:39.530Z,57.33
2022-12-23T06:34:42.752Z,57.03
2022-12-23T06:37:45.891Z,57.78
2022-12-23T06:40:50.475Z,54.97
2022-12-23T06:43:54.618Z,56.40
2022-12-23T06:46:58.086Z,55.15
2022-12-23T06:50:01.314Z,52.50
2022-12-23T06:53:04.951Z,54.25
2022-12-23T06:56:09.745Z,58.42
2022-12-23T06:59:13.538Z,66.15
2022-12-23T07:02:17.224Z,71.90
2022-12-23T07:05:20.585Z,67.72
2022-12-23T07:08:23.935Z,63.95
2022-12-23T07:11:28.630Z,101.43
2022-12-23T07:14:31.932Z,71.22
2022-12-23T07:17:35.172Z,57.70
2022-12-23T07:20:38.421Z,53.22
2022-12-23T07:23:41.900Z,57.60
2022-12-23T07:26:46.710Z,55.67
2022-12-23T07:29:50.007Z,56.00
2022-12-23T07:32:53.752Z,50.40
2022-12-23T07:35:59.621Z,55.78
2022-12-23T07:39:03.153Z,55.63
2022-12-23T07:45:31.776Z,56.15
2022-12-23T07:48:35.363Z,51.80
2022-12-23T07:51:38.633Z,78.97
2022-12-23T07:54:41.892Z,102.28
2022-12-23T07:57:49.184Z,91.95
2022-12-23T08:00:53.205Z,89.35
2022-12-23T08:03:57.034Z,166.60
2022-12-23T08:07:00.358Z,112.22
2022-12-23T08:10:04.360Z,62.40
2022-12-23T08:13:09.012Z,54.28
2022-12-23T08:16:13.871Z,48.20
2022-12-23T08:19:19.625Z,45.25
2022-12-23T08:22:22.902Z,43.17
2022-12-23T08:25:26.114Z,45.25
2022-12-23T08:28:31.239Z,42.65
2022-12-23T08:31:34.592Z,42.10
2022-12-23T08:34:38.009Z,40.80
2022-12-23T08:37:41.239Z,41.72
2022-12-23T08:40:44.455Z,39.20
2022-12-23T08:43:49.559Z,40.97
2022-12-23T08:46:52.909Z,39.88
2022-12-23T08:49:56.114Z,43.05
2022-12-23T08:52:59.547Z,44.65
2022-12-23T08:56:05.019Z,46.88
2022-12-23T08:59:19.013Z,41.22
2022-12-23T09:02:23.183Z,44.65
2022-12-23T09:05:26.505Z,45.83
2022-12-23T09:08:29.770Z,42.38
2022-12-23T09:11:33.629Z,46.78
2022-12-23T09:14:38.800Z,43.13
2022-12-23T09:17:42.101Z,40.58
2022-12-23T09:20:45.561Z,37.60
2022-12-23T09:23:49.676Z,37.72
2022-12-23T09:26:52.929Z,35.92
2022-12-23T09:29:57.557Z,34.13
2022-12-23T09:33:00.874Z,37.05
2022-12-23T09:36:05.517Z,35.80
2022-12-23T09:39:08.679Z,37.65
2022-12-23T09:42:28.700Z,40.08
2022-12-23T09:46:00.417Z,41.95
2022-12-23T09:49:09.811Z,39.50
2022-12-23T09:52:17.481Z,38.53
2022-12-23T09:55:23.434Z,38.72
2022-12-23T09:58:31.190Z,39.63
2022-12-23T10:01:45.342Z,41.33
2022-12-23T10:04:57.850Z,44.53
2022-12-23T10:08:08.807Z,42.42
2022-12-23T10:11:17.968Z,43.88
2022-12-23T10:14:26.251Z,50.85
2022-12-23T10:17:40.117Z,44.92
2022-12-23T10:20:48.617Z,49.38
2022-12-23T10:23:54.530Z,41.13
2022-12-23T10:27:01.264Z,42.60
2022-12-23T10:30:34.244Z,42.67
2022-12-23T10:33:49.104Z,37.10
2022-12-23T10:37:00.858Z,38.42
2022-12-23T10:40:17.902Z,36.45
2022-12-23T10:43:28.355Z,37.20
2022-12-23T10:49:50.099Z,37.45
2022-12-23T10:52:57.339Z,38.85
2022-12-23T10:56:01.518Z,37.97
2022-12-23T10:59:06.862Z,39.65
2022-12-23T11:02:37.195Z,40.63
2022-12-23T11:08:45.511Z,41.15
2022-12-23T11:12:00.897Z,41.17
2022-12-23T11:15:05.073Z,42.97
2022-12-23T11:18:19.464Z,42.15
2022-12-23T11:21:24.532Z,41.65
2022-12-23T11:24:35.438Z,41.38
2022-12-23T11:27:45.302Z,40.20
2022-12-23T11:30:56.509Z,42.13
2022-12-23T11:34:02.542Z,41.50
2022-12-23T11:37:07.858Z,42.05
2022-12-23T11:40:23.036Z,41.35
2022-12-23T11:43:28.073Z,36.65
2022-12-23T11:46:34.748Z,39.22
2022-12-23T11:49:49.432Z,36.78
2022-12-23T11:52:57.131Z,36.92
2022-12-23T11:56:03.857Z,36.90
2022-12-23T11:59:09.780Z,36.63
2022-12-23T12:02:19.687Z,35.38
2022-12-23T12:05:26.945Z,33.60
2022-12-23T12:08:35.231Z,34.45
2022-12-23T12:11:45.352Z,33.58
2022-12-23T12:14:51.497Z,35.45
2022-12-23T12:17:57.163Z,35.33
2022-12-23T12:21:07.869Z,33.17
2022-12-23T12:24:19.877Z,32.95
2022-12-23T12:27:37.437Z,33.00
2022-12-23T12:30:46.176Z,31.85
2022-12-23T12:33:54.713Z,31.83
2022-12-23T12:37:05.164Z,31.70
2022-12-23T12:40:22.691Z,32.00
2022-12-23T12:43:31.082Z,31.40
2022-12-23T12:46:39.903Z,30.20
2022-12-23T12:49:49.769Z,31.70
2022-12-23T12:52:55.436Z,23.85
2022-12-23T12:56:08.256Z,30.98
2022-12-23T12:59:18.815Z,32.83
2022-12-23T13:02:40.185Z,30.35
2022-12-23T13:06:08.554Z,30.67
2022-12-23T13:09:20.414Z,29.70
2022-12-23T13:12:38.918Z,30.83
2022-12-23T13:15:52.231Z,31.77
2022-12-23T13:19:02.380Z,46.05
2022-12-23T13:22:09.358Z,34.45
2022-12-23T13:25:19.118Z,32.28
2022-12-23T13:28:35.696Z,23.15
2022-12-23T13:31:48.034Z,30.83
2022-12-23T13:35:02.275Z,31.17
2022-12-23T13:38:19.277Z,30.98
2022-12-23T13:41:29.649Z,31.20
2022-12-23T13:47:47.206Z,31.38
2022-12-23T13:50:58.292Z,32.67
2022-12-23T13:54:11.184Z,35.35
2022-12-23T13:57:22.345Z,34.40
2022-12-23T14:00:29.895Z,32.83
2022-12-23T14:03:35.109Z,33.15
2022-12-23T14:06:46.201Z,33.58
2022-12-23T14:09:53.211Z,35.35
2022-12-23T14:13:02.290Z,36.38
2022-12-23T14:16:29.339Z,37.97
2022-12-23T14:19:43.551Z,38.72
2022-12-23T14:22:59.128Z,38.03
2022-12-23T14:26:22.739Z,42.28
2022-12-23T14:29:46.657Z,43.50
2022-12-23T14:32:58.578Z,44.83
2022-12-23T14:36:23.760Z,43.10
2022-12-23T14:39:34.531Z,41.85
2022-12-23T14:42:43.969Z,39.28
2022-12-23T14:45:47.444Z,44.17
2022-12-23T14:49:38.948Z,38.95
2022-12-23T14:53:00.217Z,33.65
2022-12-23T14:59:24.304Z,28.73
2022-12-23T15:02:34.726Z,30.60
2022-12-23T15:08:51.083Z,38.80
2022-12-23T15:11:55.827Z,34.17
2022-12-23T15:15:03.658Z,33.63
2022-12-23T15:18:12.495Z,35.03
2022-12-23T15:21:17.795Z,32.15
2022-12-23T15:24:23.283Z,34.65
2022-12-23T15:27:30.410Z,45.47
2022-12-23T15:30:38.367Z,38.38
2022-12-23T15:37:12.358Z,43.90
2022-12-23T15:40:25.981Z,42.42
2022-12-23T15:43:30.055Z,44.47
2022-12-23T15:46:33.683Z,43.20
2022-12-23T15:49:37.190Z,45.83
2022-12-23T15:52:44.076Z,47.40
2022-12-23T15:55:49.965Z,46.42
2022-12-23T15:58:54.543Z,49.47
2022-12-23T16:01:58.400Z,41.13
2022-12-23T16:05:05.552Z,41.05
2022-12-23T16:08:29.862Z,44.38
2022-12-23T16:11:43.711Z,43.50
2022-12-23T16:14:55.014Z,48.53
2022-12-23T16:18:14.686Z,41.90
2022-12-23T16:21:18.071Z,42.15
2022-12-23T16:24:23.230Z,42.17
2022-12-23T16:27:34.568Z,40.47
2022-12-23T16:30:39.543Z,44.47
2022-12-23T16:33:45.597Z,43.25
2022-12-23T16:36:49.113Z,48.35
2022-12-23T16:39:53.845Z,47.33
2022-12-23T16:42:58.856Z,49.53
2022-12-23T16:46:03.189Z,59.92
2022-12-23T16:49:11.108Z,52.20
2022-12-23T16:52:15.522Z,53.95
2022-12-23T16:55:21.764Z,53.40
2022-12-23T16:58:25.361Z,52.33
2022-12-23T17:01:31.238Z,51.80
2022-12-23T17:04:37.268Z,51.65
2022-12-23T17:07:45.216Z,50.15
2022-12-23T17:10:51.457Z,51.72
2022-12-23T17:14:01.578Z,53.42
2022-12-23T17:17:15.544Z,50.20
2022-12-23T17:20:20.178Z,50.05
2022-12-23T17:23:28.309Z,63.08
2022-12-23T17:26:33.174Z,74.00
2022-12-23T17:29:36.562Z,60.08
2022-12-23T17:32:40.034Z,52.38
2022-12-23T17:35:43.801Z,54.55
2022-12-23T17:38:47.153Z,52.15
2022-12-23T17:41:52.588Z,50.38
2022-12-23T17:44:55.880Z,53.10
2022-12-23T17:47:59.547Z,50.45
2022-12-23T17:51:03.258Z,50.13
2022-12-23T17:54:06.954Z,55.03
2022-12-23T17:57:24.000Z,51.95
2022-12-23T18:00:33.824Z,53.22
2022-12-23T18:03:37.626Z,56.25
2022-12-23T18:06:41.148Z,54.55
2022-12-23T18:09:44.635Z,63.45
2022-12-23T18:12:52.470Z,62.35
2022-12-23T18:15:55.791Z,58.63
2022-12-23T18:18:59.149Z,56.58
2022-12-23T18:22:03.712Z,61.75
2022-12-23T18:25:07.626Z,57.85
2022-12-23T18:28:13.292Z,61.80
2022-12-23T18:31:18.150Z,68.13
2022-12-23T18:34:21.971Z,64.63
2022-12-23T18:37:25.725Z,59.17
2022-12-23T18:40:32.904Z,63.13
2022-12-23T18:43:38.639Z,65.90
2022-12-23T18:46:42.247Z,63.28
2022-12-23T18:49:45.963Z,67.93
2022-12-23T18:52:51.740Z,63.67
2022-12-23T18:55:55.628Z,65.50
2022-12-23T18:59:02.277Z,66.07
2022-12-23T19:02:06.168Z,71.05
2022-12-23T19:05:23.849Z,73.13
2022-12-23T19:08:28.093Z,74.47
2022-12-23T19:11:31.700Z,71.15
2022-12-23T19:14:36.570Z,72.05
2022-12-23T19:17:40.194Z,75.10
2022-12-23T19:20:46.847Z,71.05
2022-12-23T19:23:51.784Z,78.20
2022-12-23T19:26:55.128Z,77.85
2022-12-23T19:30:01.233Z,68.55
2022-12-23T19:33:05.483Z,72.28
2022-12-23T19:36:12.425Z,78.93
2022-12-23T19:39:18.232Z,80.88
2022-12-23T19:42:22.070Z,75.97
2022-12-23T19:45:27.187Z,115.70
2022-12-23T19:48:32.102Z,87.45
2022-12-23T19:51:35.443Z,68.20
2022-12-23T19:54:39.003Z,75.57
2022-12-23T19:57:43.214Z,76.05
2022-12-23T20:00:48.617Z,71.43
2022-12-23T20:03:53.322Z,83.18
2022-12-23T20:06:56.837Z,89.55
2022-12-23T20:10:00.178Z,86.78
2022-12-23T20:13:03.887Z,97.63
2022-12-23T20:16:10.271Z,83.85
2022-12-23T20:19:13.840Z,80.88
2022-12-23T20:22:17.232Z,82.10
2022-12-23T20:25:20.578Z,74.57
2022-12-23T20:28:24.114Z,76.25
2022-12-23T20:31:30.078Z,75.93
2022-12-23T20:34:39.190Z,73.72
2022-12-23T20:37:43.450Z,76.78
2022-12-23T20:40:46.775Z,77.55
2022-12-23T20:44:23.328Z,77.80
2022-12-23T20:47:15.864Z,77.97
2022-12-23T20:50:19.599Z,82.60
2022-12-23T20:53:23.360Z,74.28
2022-12-23T20:56:29.370Z,72.13
2022-12-23T20:59:33.224Z,77.93
2022-12-23T21:02:38.029Z,82.53
2022-12-23T21:05:41.425Z,81.80
2022-12-23T21:08:44.753Z,84.00
2022-12-23T21:11:48.927Z,81.80
2022-12-23T21:14:52.222Z,84.03
2022-12-23T21:17:58.460Z,85.25
2022-12-23T21:21:03.705Z,82.70
2022-12-23T21:24:07.950Z,80.22
2022-12-23T21:27:12.581Z,77.35
2022-12-23T21:30:17.743Z,76.60
2022-12-23T21:33:23.102Z,76.25
2022-12-23T21:36:29.198Z,83.60
2022-12-23T21:39:33.253Z,78.72
2022-12-23T21:42:36.539Z,77.47
2022-12-23T21:45:40.566Z,78.88
2022-12-23T21:48:45.972Z,77.22
2022-12-23T21:51:50.491Z,86.97
2022-12-23T21:54:53.859Z,81.65
2022-12-23T21:57:57.109Z,86.35
2022-12-23T22:01:00.755Z,86.90
2022-12-23T22:04:06.243Z,86.78
2022-12-23T22:07:09.968Z,82.68
2022-12-23T22:10:13.413Z,80.75
2022-12-23T22:13:16.724Z,84.38
2022-12-23T22:16:22.370Z,79.78
2022-12-23T22:19:27.355Z,87.53
2022-12-23T22:22:30.857Z,85.78
2022-12-23T22:25:34.156Z,82.78
2022-12-23T22:28:38.509Z,80.32
2022-12-23T22:31:44.441Z,77.93
2022-12-23T22:34:49.220Z,76.97
2022-12-23T22:37:52.783Z,76.32
2022-12-23T22:40:56.140Z,79.25
2022-12-23T22:44:00.515Z,76.18
2022-12-23T22:47:04.123Z,78.50
2022-12-23T22:50:10.501Z,77.47
2022-12-23T22:53:16.835Z,79.47
2022-12-23T22:56:22.168Z,79.55
2022-12-23T22:59:26.649Z,77.75
2022-12-23T23:02:30.883Z,79.00
2022-12-23T23:05:36.000Z,77.88
2022-12-23T23:08:39.479Z,76.57
2022-12-23T23:11:43.308Z,79.60
2022-12-23T23:14:56.081Z,79.80
2022-12-23T23:17:59.414Z,80.47
2022-12-23T23:21:04.297Z,82.57
2022-12-23T23:24:08.465Z,81.30
2022-12-23T23:27:12.188Z,82.80
2022-12-23T23:30:15.528Z,78.30
2022-12-23T23:33:19.022Z,82.57
2022-12-23T23:36:24.256Z,80.60
2022-12-23T23:39:27.823Z,78.38
2022-12-23T23:42:31.094Z,79.65
2022-12-23T23:45:34.456Z,81.00
2022-12-23T23:48:37.920Z,83.05
2022-12-23T23:51:43.047Z,79.63
2022-12-23T23:54:46.512Z,81.10
2022-12-23T23:57:50.002Z,79.65
